Time;durP1;ratioP1;P1;durP2;ratioP2;P2;SDS_P1;SDS_P2;PMS_P1;PMS_P2;Temp;Humidity;BMP_temperature;BMP_pressure;BME280_temperature;BME280_humidity;BME280_pressure;Samples;Min_cycle;Max_cycle;Signal;HPM_P1;HPM_P2
2022/08/17 00:00:25;;;;;;;16.10;13.55;;;20.90;99.90;;;;;;5037538;28;20196;-80
2022/08/17 00:03:04;;;;;;;20.42;14.35;;;20.80;99.90;;;;;;5037179;28;20258;-81
2022/08/17 00:05:34;;;;;;;18.75;14.50;;;20.90;99.90;;;;;;5034547;28;20192;-80
2022/08/17 00:08:00;;;;;;;26.63;15.93;;;20.80;99.90;;;;;;5037826;28;20173;-81
2022/08/17 00:10:27;;;;;;;24.83;15.70;;;20.80;99.90;;;;;;5038095;28;20164;-80
2022/08/17 00:12:53;;;;;;;17.77;14.55;;;20.70;99.90;;;;;;5037975;28;20165;-80
2022/08/17 00:15:21;;;;;;;18.98;14.75;;;20.70;99.90;;;;;;5039330;28;20272;-80
2022/08/17 00:17:48;;;;;;;18.77;14.95;;;20.60;99.90;;;;;;5038545;28;20173;-80
2022/08/17 00:20:14;;;;;;;21.27;16.02;;;20.70;99.90;;;;;;5038524;28;20213;-81
2022/08/17 00:22:39;;;;;;;22.85;15.00;;;20.50;99.90;;;;;;5038680;28;20169;-80
2022/08/17 00:25:11;;;;;;;22.10;15.85;;;20.60;99.90;;;;;;5038817;28;20196;-81
2022/08/17 00:27:37;;;;;;;24.85;15.13;;;20.60;99.90;;;;;;5038963;28;20169;-81
2022/08/17 00:30:07;;;;;;;17.92;14.60;;;20.40;99.90;;;;;;5038708;28;20170;-80
2022/08/17 00:32:40;;;;;;;19.67;14.30;;;20.40;99.90;;;;;;5039302;28;20193;-80
2022/08/17 00:35:08;;;;;;;20.42;15.40;;;20.70;99.90;;;;;;5039018;28;20276;-81
2022/08/17 00:37:33;;;;;;;23.58;14.57;;;20.70;99.90;;;;;;5035839;28;20194;-80
2022/08/17 00:39:59;;;;;;;18.83;13.52;;;20.60;99.90;;;;;;5039119;28;20185;-81
2022/08/17 00:42:25;;;;;;;19.20;14.60;;;20.60;99.90;;;;;;5038922;28;20177;-80
2022/08/17 00:44:50;;;;;;;19.30;13.52;;;20.60;99.90;;;;;;5039278;28;20211;-81
2022/08/17 00:47:16;;;;;;;23.50;15.45;;;20.80;99.90;;;;;;5039576;28;20237;-80
2022/08/17 00:49:42;;;;;;;21.40;15.35;;;20.80;99.90;;;;;;5039365;28;20177;-80
2022/08/17 00:52:15;;;;;;;17.27;15.18;;;20.70;99.90;;;;;;5039149;28;20177;-80
2022/08/17 00:54:43;;;;;;;23.73;16.52;;;20.80;99.90;;;;;;5037102;28;20184;-80
2022/08/17 00:57:15;;;;;;;21.13;16.40;;;20.60;99.90;;;;;;5039627;28;20174;-81
2022/08/17 00:59:47;;;;;;;21.90;14.93;;;20.40;99.90;;;;;;5040992;28;20208;-80
2022/08/17 01:02:14;;;;;;;21.70;16.48;;;20.50;99.90;;;;;;5039723;28;20260;-81
2022/08/17 01:04:43;;;;;;;20.65;16.27;;;20.50;99.90;;;;;;5038968;28;20173;-81
2022/08/17 01:07:10;;;;;;;20.02;16.40;;;20.60;99.90;;;;;;5039342;28;20166;-81
2022/08/17 01:09:37;;;;;;;22.50;15.98;;;20.70;99.90;;;;;;5041511;28;20173;-81
2022/08/17 01:12:07;;;;;;;26.85;15.77;;;20.60;99.90;;;;;;5041179;28;20177;-81
2022/08/17 01:14:32;;;;;;;22.35;16.58;;;20.40;99.90;;;;;;5038609;28;20176;-80
2022/08/17 01:16:59;;;;;;;24.23;16.10;;;20.50;99.90;;;;;;5036022;28;20592;-80
2022/08/17 01:19:37;;;;;;;21.95;17.17;;;20.60;99.90;;;;;;5036008;28;20216;-80
2022/08/17 01:22:24;;;;;;;20.70;15.83;;;20.40;99.90;;;;;;5035285;28;20168;-80
2022/08/17 01:24:56;;;;;;;18.83;16.10;;;20.40;99.90;;;;;;5035174;28;20234;-82
2022/08/17 01:27:23;;;;;;;22.67;17.35;;;20.50;99.90;;;;;;5034781;28;20219;-82
2022/08/17 01:29:56;;;;;;;20.13;16.15;;;20.40;99.90;;;;;;5035793;28;20176;-82
2022/08/17 01:32:23;;;;;;;19.70;16.85;;;20.40;99.90;;;;;;5035078;28;20157;-82
2022/08/17 01:34:49;;;;;;;24.80;16.93;;;20.10;99.90;;;;;;5034684;28;20181;-82
2022/08/17 01:37:15;;;;;;;23.27;16.95;;;20.20;99.90;;;;;;5035846;28;20165;-82
2022/08/17 01:39:47;;;;;;;22.15;16.77;;;20.20;99.90;;;;;;5035458;28;20266;-82
2022/08/17 01:42:13;;;;;;;21.92;16.20;;;20.20;99.90;;;;;;5034719;28;20180;-82
2022/08/17 01:44:38;;;;;;;23.00;16.87;;;20.20;99.90;;;;;;5034912;28;20169;-82
2022/08/17 01:47:04;;;;;;;22.98;16.90;;;20.10;99.90;;;;;;5035460;28;20696;-82
2022/08/17 01:49:30;;;;;;;18.70;16.58;;;20.20;99.90;;;;;;5036537;28;20169;-82
2022/08/17 01:51:56;;;;;;;25.80;18.07;;;20.20;99.90;;;;;;5038364;28;20177;-82
2022/08/17 01:54:23;;;;;;;23.63;17.85;;;19.90;99.90;;;;;;5038660;28;20169;-82
2022/08/17 01:56:51;;;;;;;21.05;17.42;;;19.90;99.90;;;;;;5038833;28;20242;-82
2022/08/17 01:59:19;;;;;;;21.17;15.35;;;19.90;99.90;;;;;;5036620;28;20189;-82
2022/08/17 02:01:45;;;;;;;21.23;16.77;;;20.00;99.90;;;;;;5037458;28;20177;-82
2022/08/17 02:04:11;;;;;;;19.42;15.68;;;19.90;99.90;;;;;;5038163;28;20170;-82
2022/08/17 02:06:39;;;;;;;18.40;15.07;;;20.00;99.90;;;;;;5037791;28;20218;-82
2022/08/17 02:09:06;;;;;;;21.43;17.63;;;19.90;99.90;;;;;;5037218;28;20248;-82
2022/08/17 02:11:36;;;;;;;20.63;16.27;;;19.80;99.90;;;;;;5037266;28;20715;-82
2022/08/17 02:14:03;;;;;;;21.60;16.35;;;19.80;99.90;;;;;;5039424;28;20200;-82
2022/08/17 02:16:29;;;;;;;19.50;16.05;;;19.60;99.90;;;;;;5039547;28;20606;-82
2022/08/17 02:18:55;;;;;;;23.17;18.63;;;19.90;99.90;;;;;;5039841;28;20598;-82
2022/08/17 02:21:20;;;;;;;20.23;17.03;;;19.50;99.90;;;;;;5039304;28;20208;-82
2022/08/17 02:23:48;;;;;;;22.40;19.30;;;19.60;99.90;;;;;;5039418;28;20204;-82
2022/08/17 02:26:14;;;;;;;23.27;18.58;;;19.60;99.90;;;;;;5039703;28;20787;-82
2022/08/17 02:28:40;;;;;;;21.43;17.80;;;19.50;99.90;;;;;;5040005;28;20219;-82
2022/08/17 02:31:08;;;;;;;23.93;18.77;;;19.60;99.90;;;;;;5040555;28;20201;-83
2022/08/17 02:33:35;;;;;;;22.07;19.13;;;19.50;99.90;;;;;;5043640;28;20190;-83
2022/08/17 02:36:03;;;;;;;23.93;18.87;;;19.50;99.90;;;;;;5044009;28;20253;-83
2022/08/17 02:38:30;;;;;;;23.60;18.50;;;19.40;99.90;;;;;;5044132;28;20189;-82
2022/08/17 02:40:59;;;;;;;23.53;18.67;;;19.60;99.90;;;;;;5044744;28;20197;-82
2022/08/17 02:43:26;;;;;;;22.63;19.77;;;19.50;99.90;;;;;;5043733;28;20227;-83
2022/08/17 02:45:52;;;;;;;26.93;20.13;;;19.40;99.90;;;;;;5046438;28;20193;-82
2022/08/17 02:48:18;;;;;;;24.33;19.07;;;19.30;99.90;;;;;;5043488;28;20161;-82
2022/08/17 02:50:44;;;;;;;28.67;19.80;;;19.30;99.90;;;;;;5043449;28;20170;-82
2022/08/17 02:53:10;;;;;;;25.13;20.33;;;19.50;99.90;;;;;;5043982;28;20200;-83
2022/08/17 02:55:39;;;;;;;27.17;19.30;;;19.40;99.90;;;;;;5042501;28;20219;-82
2022/08/17 02:58:05;;;;;;;30.10;19.67;;;19.30;99.90;;;;;;5042974;28;20542;-82
2022/08/17 03:00:34;;;;;;;24.47;19.67;;;19.30;99.90;;;;;;5041888;28;20196;-82
2022/08/17 03:03:01;;;;;;;26.37;19.13;;;19.20;99.90;;;;;;5041790;28;20550;-82
2022/08/17 03:05:29;;;;;;;32.20;19.67;;;19.20;99.90;;;;;;5042117;28;20193;-83
2022/08/17 03:07:55;;;;;;;28.57;20.53;;;19.20;99.90;;;;;;5042770;28;20191;-82
2022/08/17 03:10:23;;;;;;;26.60;18.93;;;19.10;99.90;;;;;;5042248;28;20165;-82
2022/08/17 03:12:50;;;;;;;24.33;19.33;;;19.10;99.90;;;;;;5042041;28;20181;-82
2022/08/17 03:15:24;;;;;;;25.93;19.53;;;18.90;99.90;;;;;;5041718;28;20189;-82
2022/08/17 03:17:51;;;;;;;22.03;17.90;;;19.10;99.90;;;;;;5042029;28;20199;-82
2022/08/17 03:20:18;;;;;;;25.00;19.03;;;19.40;99.90;;;;;;5040960;28;20189;-82
2022/08/17 03:22:47;;;;;;;24.97;18.30;;;19.00;99.90;;;;;;5041056;28;20694;-82
2022/08/17 03:25:20;;;;;;;25.67;19.03;;;18.90;99.90;;;;;;5040952;28;20472;-82
2022/08/17 03:27:47;;;;;;;30.97;19.13;;;19.00;99.90;;;;;;5041126;28;20169;-82
2022/08/17 03:30:13;;;;;;;28.23;21.43;;;18.80;99.90;;;;;;5040876;28;20174;-82
2022/08/17 03:32:44;;;;;;;33.07;23.70;;;18.80;99.90;;;;;;5040210;28;20192;-82
2022/08/17 03:35:13;;;;;;;29.23;23.90;;;18.60;99.90;;;;;;5040381;28;20197;-82
2022/08/17 03:37:39;;;;;;;30.97;22.43;;;18.50;99.90;;;;;;5040648;28;20173;-82
2022/08/17 03:40:06;;;;;;;33.93;22.60;;;18.70;99.90;;;;;;5035811;28;20189;-82
2022/08/17 03:42:33;;;;;;;28.90;21.67;;;18.80;99.90;;;;;;5040140;28;20630;-82
2022/08/17 03:45:00;;;;;;;28.87;23.53;;;18.80;99.90;;;;;;5040561;28;20532;-82
2022/08/17 03:58:25;;;;;;;31.30;22.90;;;18.70;99.90;;;;;;5057729;28;20192;-82
2022/08/17 04:00:51;;;;;;;33.30;23.63;;;18.40;99.90;;;;;;5039273;28;20569;-82
2022/08/17 04:03:17;;;;;;;31.97;23.67;;;18.50;99.90;;;;;;5038936;28;20162;-82
2022/08/17 04:05:43;;;;;;;32.60;23.13;;;18.70;99.90;;;;;;5039340;28;20619;-82
2022/08/17 04:08:09;;;;;;;35.97;23.30;;;18.60;99.90;;;;;;5039081;28;20173;-82
2022/08/17 04:10:36;;;;;;;33.33;23.73;;;18.70;99.90;;;;;;5056570;28;20177;-82
2022/08/17 04:13:03;;;;;;;32.83;23.87;;;18.50;99.90;;;;;;5037731;28;20178;-80
2022/08/17 04:15:29;;;;;;;30.87;23.40;;;18.40;99.90;;;;;;5036759;28;20205;-80
2022/08/17 04:17:56;;;;;;;31.50;24.10;;;18.40;99.90;;;;;;5036186;28;20609;-80
2022/08/17 04:20:22;;;;;;;30.83;22.73;;;18.50;99.90;;;;;;5042827;28;20331;-80
2022/08/17 04:23:03;;;;;;;33.10;23.87;;;18.60;99.90;;;;;;5057054;28;20673;-80
2022/08/17 04:25:32;;;;;;;34.53;23.40;;;18.70;99.90;;;;;;5036234;28;20200;-82
2022/08/17 04:27:59;;;;;;;34.70;25.37;;;18.80;99.90;;;;;;5036058;28;20622;-81
2022/08/17 04:30:27;;;;;;;35.00;24.73;;;18.70;99.90;;;;;;5038492;28;20173;-81
2022/08/17 04:32:59;;;;;;;34.47;23.17;;;18.60;99.90;;;;;;5040402;28;20177;-81
2022/08/17 04:35:28;;;;;;;31.47;23.30;;;18.80;99.90;;;;;;5038204;28;20193;-80
2022/08/17 04:37:54;;;;;;;33.20;24.27;;;18.80;99.90;;;;;;5036594;28;20241;-80
2022/08/17 04:43:11;;;;;;;32.37;23.53;;;18.80;99.90;;;;;;5054828;28;20188;-80
2022/08/17 04:45:39;;;;;;;32.70;24.17;;;18.90;99.90;;;;;;5038146;28;20205;-80
2022/08/17 04:48:05;;;;;;;29.27;22.63;;;18.80;99.90;;;;;;5038390;28;20896;-80
2022/08/17 04:50:35;;;;;;;32.17;23.37;;;18.90;99.90;;;;;;5037244;28;20195;-80
2022/08/17 04:53:02;;;;;;;35.90;23.50;;;19.00;99.90;;;;;;5038291;28;20177;-81
2022/08/17 04:55:28;;;;;;;29.20;22.23;;;19.10;99.90;;;;;;5037376;28;20569;-80
2022/08/17 04:57:54;;;;;;;31.00;22.47;;;18.90;99.90;;;;;;5038208;28;20547;-80
2022/08/17 05:00:19;;;;;;;31.13;22.70;;;18.90;99.90;;;;;;5038089;28;20200;-81
2022/08/17 05:02:49;;;;;;;34.77;22.90;;;19.00;99.90;;;;;;5038060;28;20223;-80
2022/08/17 05:05:30;;;;;;;28.07;21.73;;;19.20;99.90;;;;;;5037596;28;20200;-80
2022/08/17 05:07:59;;;;;;;34.57;22.27;;;19.10;99.90;;;;;;5037223;28;20200;-80
2022/08/17 05:10:28;;;;;;;28.50;20.80;;;19.20;99.90;;;;;;5055672;28;20182;-80
2022/08/17 05:13:05;;;;;;;25.87;20.90;;;19.00;99.90;;;;;;5037087;28;20235;-80
2022/08/17 05:15:34;;;;;;;37.87;22.50;;;19.10;99.90;;;;;;5037468;28;20560;-81
2022/08/17 05:17:59;;;;;;;35.87;21.80;;;19.00;99.90;;;;;;5038262;28;20201;-81
2022/08/17 05:20:27;;;;;;;30.33;20.87;;;19.00;99.90;;;;;;5037553;28;20208;-80
2022/08/17 05:22:55;;;;;;;37.10;22.17;;;19.20;99.90;;;;;;5038544;28;20676;-80
2022/08/17 05:25:23;;;;;;;34.33;22.07;;;19.30;99.90;;;;;;5038696;28;20239;-80
2022/08/17 05:27:49;;;;;;;27.90;19.93;;;19.30;99.90;;;;;;5040326;28;20184;-80
2022/08/17 05:30:16;;;;;;;29.40;19.90;;;19.30;99.90;;;;;;5039697;28;20173;-81
2022/08/17 05:32:54;;;;;;;31.67;21.30;;;19.50;99.90;;;;;;5037219;28;20173;-80
2022/08/17 05:35:20;;;;;;;40.00;21.97;;;19.50;99.90;;;;;;5037833;28;20208;-80
2022/08/17 05:37:45;;;;;;;30.10;18.63;;;19.60;99.90;;;;;;5036542;28;20173;-80
2022/08/17 05:40:12;;;;;;;28.03;19.53;;;19.40;99.90;;;;;;5037772;28;20197;-80
2022/08/17 05:42:38;;;;;;;40.35;19.15;;;19.50;99.90;;;;;;5036660;28;20530;-80
2022/08/17 05:45:04;;;;;;;31.17;19.93;;;19.60;99.90;;;;;;5036330;28;20197;-80
2022/08/17 05:47:30;;;;;;;34.33;18.83;;;19.60;99.90;;;;;;5036618;28;20241;-80
2022/08/17 05:49:57;;;;;;;26.83;18.77;;;19.50;99.90;;;;;;5035875;28;20200;-80
2022/08/17 05:52:29;;;;;;;30.88;19.08;;;19.60;99.90;;;;;;5036525;28;20173;-80
2022/08/17 05:55:16;;;;;;;27.33;18.40;;;19.60;99.90;;;;;;5034584;28;20239;-80
2022/08/17 05:58:09;;;;;;;41.83;19.00;;;19.70;99.90;;;;;;5034192;28;20260;-81
2022/08/17 06:00:45;;;;;;;30.33;18.42;;;19.80;99.90;;;;;;5034530;28;20614;-80
2022/08/17 06:03:23;;;;;;;26.33;18.10;;;19.90;99.90;;;;;;5031172;28;20184;-81
2022/08/17 06:05:55;;;;;;;25.95;17.80;;;20.20;99.90;;;;;;5035020;28;20343;-80
2022/08/17 06:08:32;;;;;;;22.00;17.00;;;20.50;99.90;;;;;;5034924;28;20193;-80
2022/08/17 06:10:58;;;;;;;25.48;16.70;;;20.50;99.90;;;;;;5033734;28;20177;-80
2022/08/17 06:13:43;;;;;;;22.90;17.55;;;20.70;99.90;;;;;;5036964;28;20169;-80
2022/08/17 06:16:15;;;;;;;28.23;16.75;;;20.80;99.90;;;;;;5024514;28;20214;-78
2022/08/17 06:21:18;;;;;;;30.50;17.27;;;20.90;99.90;;;;;;5048496;28;20764;-81
2022/08/17 06:24:07;;;;;;;25.25;16.38;;;20.80;99.90;;;;;;5050547;28;20173;-81
2022/08/17 06:26:36;;;;;;;32.15;17.92;;;20.90;99.90;;;;;;5049248;28;20165;-81
2022/08/17 06:29:07;;;;;;;24.50;15.95;;;20.80;99.90;;;;;;5051285;28;20166;-81
2022/08/17 06:31:37;;;;;;;26.90;16.25;;;20.80;99.90;;;;;;5065035;28;20263;-79
2022/08/17 06:34:05;;;;;;;26.20;16.70;;;20.90;99.90;;;;;;5076948;22;20221;-80
2022/08/17 06:36:38;;;;;;;28.38;16.35;;;20.80;99.90;;;;;;5056255;28;20246;-79
2022/08/17 06:39:37;;;;;;;34.55;15.93;;;21.00;99.90;;;;;;5056785;28;20177;-80
2022/08/17 06:42:15;;;;;;;29.58;16.55;;;21.30;99.90;;;;;;5056110;28;20264;-79
2022/08/17 06:45:01;;;;;;;49.92;16.33;;;21.20;99.90;;;;;;5056362;28;20173;-80
2022/08/17 06:47:48;;;;;;;23.55;16.38;;;21.10;99.90;;;;;;5056441;28;20169;-80
2022/08/17 06:50:34;;;;;;;26.88;15.50;;;21.00;99.90;;;;;;5057359;28;20170;-80
2022/08/17 06:53:09;;;;;;;30.85;15.77;;;21.00;99.90;;;;;;5057020;28;20161;-79
2022/08/17 06:55:44;;;;;;;30.77;14.68;;;21.20;99.90;;;;;;5056222;28;20197;-81
2022/08/17 06:58:12;;;;;;;27.92;14.07;;;21.60;99.90;;;;;;5057781;28;20161;-80
2022/08/17 07:00:43;;;;;;;25.33;13.65;;;21.60;99.90;;;;;;5056050;28;20204;-80
2022/08/17 07:03:19;;;;;;;21.70;13.57;;;21.90;99.90;;;;;;5055470;28;20173;-82
2022/08/17 07:05:57;;;;;;;16.33;12.27;;;21.80;99.90;;;;;;5056470;28;20189;-80
2022/08/17 07:08:50;;;;;;;31.38;12.73;;;22.20;99.90;;;;;;5055474;28;20250;-81
2022/08/17 07:11:26;;;;;;;22.65;11.63;;;22.60;99.90;;;;;;5055412;28;20173;-80
2022/08/17 07:14:29;;;;;;;20.98;11.93;;;23.00;99.90;;;;;;5054799;28;20252;-81
2022/08/17 07:17:00;;;;;;;16.05;11.77;;;23.30;99.90;;;;;;5052186;28;20239;-81
2022/08/17 07:19:30;;;;;;;20.35;11.20;;;23.20;99.90;;;;;;5053788;28;20224;-81
2022/08/17 07:22:25;;;;;;;20.15;11.02;;;23.70;99.90;;;;;;5053166;28;20603;-83
2022/08/17 07:24:56;;;;;;;17.25;10.70;;;24.50;99.90;;;;;;5053444;28;20220;-82
2022/08/17 07:27:29;;;;;;;19.48;9.70;;;24.50;99.90;;;;;;5052917;28;20176;-78
2022/08/17 07:30:06;;;;;;;21.23;9.30;;;25.10;99.90;;;;;;5053187;28;20386;-80
2022/08/17 07:32:40;;;;;;;18.08;9.00;;;24.80;99.90;;;;;;5055679;28;20184;-79
2022/08/17 07:35:14;;;;;;;19.10;9.18;;;25.10;99.90;;;;;;5054241;28;20217;-81
2022/08/17 07:37:43;;;;;;;13.98;8.30;;;25.20;99.90;;;;;;5054087;28;20830;-80
2022/08/17 07:40:25;;;;;;;18.20;8.23;;;25.40;99.90;;;;;;5054159;28;20247;-83
2022/08/17 07:43:25;;;;;;;16.75;7.95;;;25.80;99.90;;;;;;5054357;28;20548;-82
2022/08/17 07:48:50;;;;;;;12.02;7.32;;;26.90;99.90;;;;;;5056038;28;20177;-81
2022/08/17 07:51:19;;;;;;;22.30;6.88;;;26.60;99.90;;;;;;5055565;28;20181;-82
2022/08/17 07:53:45;;;;;;;17.40;7.18;;;26.50;99.90;;;;;;5057953;28;20541;-78
2022/08/17 07:56:41;;;;;;;32.42;7.30;;;26.00;99.90;;;;;;5054423;28;20724;-82
2022/08/17 07:59:19;;;;;;;22.77;7.05;;;26.20;99.90;;;;;;5053491;28;20177;-82
2022/08/17 08:02:20;;;;;;;16.25;7.15;;;26.10;99.90;;;;;;5053777;28;20205;-80
2022/08/17 08:05:18;;;;;;;11.00;6.68;;;25.90;99.90;;;;;;5022880;28;20188;-80
2022/08/17 08:07:58;;;;;;;119.15;11.38;;;25.90;99.90;;;;;;5053740;28;20184;-82
2022/08/17 08:10:42;;;;;;;24.35;6.53;;;25.70;99.90;;;;;;5054140;28;20181;-82
2022/08/17 08:13:13;;;;;;;20.10;6.93;;;25.80;99.90;;;;;;5053077;28;20173;-79
2022/08/17 08:15:49;;;;;;;33.95;7.63;;;25.90;99.90;;;;;;5051628;28;20201;-80
2022/08/17 08:18:32;;;;;;;20.75;7.10;;;25.80;99.90;;;;;;5053885;28;20168;-82
2022/08/17 08:21:08;;;;;;;38.80;7.43;;;25.60;99.90;;;;;;5052016;28;20246;-81
2022/08/17 08:23:45;;;;;;;18.63;6.70;;;25.60;99.90;;;;;;5053171;28;20173;-83
2022/08/17 08:26:20;;;;;;;12.23;6.68;;;25.80;99.90;;;;;;5053818;28;20238;-79
2022/08/17 08:29:07;;;;;;;14.75;6.85;;;25.50;99.90;;;;;;5054513;28;20209;-83
2022/08/17 08:32:00;;;;;;;11.20;6.38;;;25.40;99.90;;;;;;5052724;28;20184;-81
2022/08/17 08:34:44;;;;;;;18.15;5.95;;;25.50;99.90;;;;;;5053558;28;20346;-84
2022/08/17 08:37:32;;;;;;;10.57;5.90;;;25.50;99.90;;;;;;5053021;28;20171;-84
2022/08/17 08:40:00;;;;;;;13.82;6.60;;;25.60;99.90;;;;;;5052563;28;20200;-83
2022/08/17 08:42:35;;;;;;;10.73;5.80;;;25.40;99.90;;;;;;5052954;28;20264;-84
2022/08/17 08:45:23;;;;;;;11.38;5.72;;;25.40;99.90;;;;;;5052629;28;20165;-84
2022/08/17 08:48:07;;;;;;;11.40;6.00;;;25.60;99.90;;;;;;5052154;28;20543;-82
2022/08/17 08:50:37;;;;;;;13.32;5.78;;;25.60;99.90;;;;;;5051831;28;20185;-84
2022/08/17 08:53:08;;;;;;;12.77;5.78;;;25.80;99.90;;;;;;5052796;28;20262;-84
2022/08/17 08:55:43;;;;;;;17.20;5.63;;;26.00;99.90;;;;;;5053268;28;20665;-84
2022/08/17 08:58:16;;;;;;;11.60;5.85;;;26.10;99.90;;;;;;5051706;28;20180;-82
2022/08/17 09:00:47;;;;;;;10.15;5.35;;;26.30;99.90;;;;;;5052860;28;20201;-80
2022/08/17 09:03:37;;;;;;;7.55;5.72;;;26.20;99.90;;;;;;5053162;28;20177;-84
2022/08/17 09:06:30;;;;;;;15.43;5.55;;;26.40;99.90;;;;;;5052919;28;20200;-82
2022/08/17 09:09:25;;;;;;;10.77;5.38;;;26.80;98.90;;;;;;5052894;28;20552;-81
2022/08/17 09:12:34;;;;;;;14.68;5.32;;;27.10;98.50;;;;;;5052641;28;20169;-83
2022/08/17 09:15:06;;;;;;;14.38;4.90;;;26.80;98.40;;;;;;5015246;28;20181;-85
2022/08/17 09:17:53;;;;;;;20.58;5.13;;;27.20;98.50;;;;;;5052950;28;20173;-83
2022/08/17 09:20:26;;;;;;;13.02;5.20;;;27.40;98.40;;;;;;5053158;28;20205;-83
2022/08/17 09:23:05;;;;;;;9.43;4.18;;;27.50;97.90;;;;;;5053579;28;20197;-84
2022/08/17 09:25:41;;;;;;;9.10;4.10;;;27.60;96.20;;;;;;5052604;28;20193;-82
2022/08/17 09:28:17;;;;;;;7.53;4.60;;;27.40;96.20;;;;;;5052144;28;20207;-81
2022/08/17 09:30:52;;;;;;;6.80;4.40;;;27.20;96.60;;;;;;5052241;28;20598;-83
2022/08/17 09:33:26;;;;;;;45.83;6.22;;;27.70;96.30;;;;;;5050418;28;20679;-83
2022/08/17 09:36:24;;;;;;;33.85;5.32;;;28.10;96.30;;;;;;5050305;28;20341;-82
2022/08/17 09:39:06;;;;;;;15.63;4.75;;;28.30;95.00;;;;;;5035092;28;20760;-81
2022/08/17 09:41:41;;;;;;;10.23;4.18;;;28.20;95.30;;;;;;5057246;28;20180;-79
2022/08/17 09:44:29;;;;;;;9.15;4.40;;;27.90;94.80;;;;;;5052444;28;20637;-82
2022/08/17 09:47:14;;;;;;;6.50;3.85;;;28.10;94.70;;;;;;5073307;28;20204;-81
2022/08/17 09:49:55;;;;;;;12.02;4.28;;;28.00;94.90;;;;;;5069163;28;20175;-81
2022/08/17 09:52:25;;;;;;;12.38;4.72;;;28.00;96.30;;;;;;5073871;28;20222;-82
2022/08/17 09:54:53;;;;;;;11.98;4.53;;;28.20;94.80;;;;;;5072371;28;20562;-80
2022/08/17 09:57:37;;;;;;;14.30;4.20;;;27.80;95.10;;;;;;5070188;28;20170;-81
2022/08/17 10:00:15;;;;;;;24.60;5.45;;;27.60;95.10;;;;;;5052722;28;20205;-84
2022/08/17 10:03:00;;;;;;;20.25;4.55;;;27.70;95.10;;;;;;5050687;28;20253;-82
2022/08/17 10:05:38;;;;;;;12.00;4.15;;;27.90;94.80;;;;;;5051702;28;20185;-79
2022/08/17 10:08:21;;;;;;;10.60;4.78;;;28.20;95.00;;;;;;5054670;28;20611;-80
2022/08/17 10:11:09;;;;;;;8.30;4.63;;;28.00;94.80;;;;;;5062007;28;20226;-79
2022/08/17 10:13:43;;;;;;;12.93;4.38;;;28.00;95.50;;;;;;5059772;28;20180;-79
2022/08/17 10:16:35;;;;;;;9.35;4.18;;;28.00;94.80;;;;;;5058128;28;20234;-77
2022/08/17 10:19:19;;;;;;;9.93;4.70;;;28.10;94.90;;;;;;5056462;28;20177;-78
2022/08/17 10:27:34;;;;;;;6.75;4.25;;;28.00;94.50;;;;;;5060430;28;20181;-78
2022/08/17 10:30:03;;;;;;;6.53;4.43;;;28.00;94.50;;;;;;5059243;28;20255;-79
2022/08/17 10:32:48;;;;;;;8.00;4.78;;;27.90;94.10;;;;;;5058906;28;20195;-80
2022/08/17 10:35:24;;;;;;;7.13;4.65;;;27.70;94.20;;;;;;5059463;28;20193;-78
2022/08/17 10:38:15;;;;;;;10.55;4.70;;;27.80;94.10;;;;;;5060709;28;20183;-79
2022/08/17 10:40:46;;;;;;;37.05;5.57;;;27.70;94.00;;;;;;5056886;28;20289;-78
2022/08/17 10:43:43;;;;;;;18.90;5.13;;;27.60;94.30;;;;;;5056985;28;20176;-78
2022/08/17 10:46:17;;;;;;;12.45;5.20;;;27.50;94.20;;;;;;5057418;28;20196;-80
2022/08/17 10:48:46;;;;;;;18.73;5.13;;;27.60;94.20;;;;;;5057736;28;20202;-79
2022/08/17 10:51:36;;;;;;;24.20;4.53;;;27.80;94.20;;;;;;5057503;28;20177;-81
2022/08/17 10:54:04;;;;;;;24.55;5.05;;;28.00;95.10;;;;;;5056640;28;20288;-79
2022/08/17 10:56:43;;;;;;;21.23;5.20;;;28.00;95.60;;;;;;5056665;28;20197;-79
2022/08/17 10:59:35;;;;;;;9.20;4.65;;;27.80;95.60;;;;;;5059747;28;20267;-80
2022/08/17 11:02:13;;;;;;;10.23;4.50;;;27.80;96.00;;;;;;5057204;28;20562;-80
2022/08/17 11:04:41;;;;;;;10.85;4.72;;;27.70;96.70;;;;;;5057811;28;20322;-79
2022/08/17 11:07:28;;;;;;;10.90;4.78;;;27.70;95.20;;;;;;5056668;28;20179;-79
2022/08/17 11:10:31;;;;;;;8.52;4.88;;;27.80;95.70;;;;;;5057067;28;20580;-82
2022/08/17 11:13:09;;;;;;;9.43;4.40;;;27.90;95.90;;;;;;5054099;28;20169;-84
2022/08/17 11:15:55;;;;;;;6.72;4.40;;;27.90;96.10;;;;;;5052807;28;20203;-82
2022/08/17 11:18:30;;;;;;;7.82;4.32;;;27.90;96.00;;;;;;5054402;28;20194;-84
2022/08/17 11:21:14;;;;;;;7.28;4.30;;;27.90;95.60;;;;;;5052899;28;20228;-82
2022/08/17 11:24:29;;;;;;;9.40;4.80;;;27.90;95.50;;;;;;5054111;28;20610;-82
2022/08/17 11:27:25;;;;;;;11.70;4.65;;;28.00;95.40;;;;;;5053730;28;20196;-83
2022/08/17 11:29:52;;;;;;;9.02;4.30;;;28.00;95.80;;;;;;5054038;28;20229;-84
2022/08/17 11:32:35;;;;;;;7.68;4.63;;;27.80;95.30;;;;;;5053839;28;20185;-81
2022/08/17 11:35:20;;;;;;;11.48;4.55;;;27.70;95.30;;;;;;5055646;28;20290;-84
2022/08/17 11:37:48;;;;;;;10.55;5.53;;;27.80;94.80;;;;;;5055297;28;20241;-85
2022/08/17 11:40:29;;;;;;;10.15;4.68;;;27.80;95.90;;;;;;5053675;28;20288;-84
2022/08/17 11:43:36;;;;;;;9.90;4.32;;;27.70;95.90;;;;;;5053653;28;20169;-81
2022/08/17 11:46:23;;;;;;;7.53;4.25;;;27.80;94.80;;;;;;5020661;28;20208;-84
2022/08/17 11:52:00;;;;;;;12.38;4.40;;;27.90;96.60;;;;;;5054536;28;20176;-83
2022/08/17 11:54:29;;;;;;;14.27;5.30;;;28.10;95.70;;;;;;5053189;28;20546;-81
2022/08/17 11:56:57;;;;;;;18.70;5.50;;;28.10;96.40;;;;;;5053281;28;20602;-82
2022/08/17 11:59:32;;;;;;;6.90;4.82;;;28.30;95.60;;;;;;5053706;28;20232;-83
2022/08/17 12:02:00;;;;;;;6.70;4.50;;;28.30;95.20;;;;;;5052898;28;20176;-84
2022/08/17 12:04:30;;;;;;;8.98;5.03;;;28.20;94.10;;;;;;5052794;28;20431;-81
2022/08/17 12:07:18;;;;;;;9.02;4.55;;;28.00;95.10;;;;;;5053336;28;20201;-83
2022/08/17 12:09:48;;;;;;;22.67;5.88;;;28.00;94.70;;;;;;5054438;28;20169;-81
2022/08/17 12:12:18;;;;;;;20.25;4.80;;;27.80;94.80;;;;;;5054275;28;20191;-81
2022/08/17 12:14:51;;;;;;;13.93;4.82;;;27.70;95.50;;;;;;5054326;28;20181;-83
2022/08/17 12:17:22;;;;;;;56.35;7.30;;;27.60;96.30;;;;;;5052583;28;20180;-81
2022/08/17 12:19:48;;;;;;;22.45;6.88;;;26.50;99.90;;;;;;5053308;28;20266;-82
2022/08/17 12:22:13;;;;;;;19.77;7.78;;;24.20;99.90;;;;;;5052529;28;20193;-81
2022/08/17 12:24:58;;;;;;;16.25;8.73;;;23.80;99.90;;;;;;5065452;22;20228;-79
2022/08/17 12:27:33;;;;;;;20.35;10.93;;;23.60;99.90;;;;;;5029578;28;20626;-77
2022/08/17 12:30:04;;;;;;;17.90;10.70;;;23.50;99.90;;;;;;5046936;28;20201;-78
2022/08/17 12:32:34;;;;;;;21.50;11.73;;;23.50;99.90;;;;;;5030121;28;20174;-77
2022/08/17 12:35:03;;;;;;;16.27;11.13;;;23.50;99.90;;;;;;5046313;28;20719;-79
2022/08/17 12:37:49;;;;;;;21.35;12.23;;;23.20;99.90;;;;;;5046478;28;20182;-78
2022/08/17 12:40:25;;;;;;;12.95;8.85;;;23.50;99.90;;;;;;5046598;28;20280;-78
2022/08/17 12:42:57;;;;;;;14.80;9.50;;;23.70;99.90;;;;;;5034653;28;20547;-80
2022/08/17 12:45:45;;;;;;;13.82;8.95;;;23.80;99.90;;;;;;5033206;28;20190;-79
2022/08/17 12:48:23;;;;;;;15.27;9.88;;;23.90;99.90;;;;;;5030588;28;20169;-80
2022/08/17 12:50:49;;;;;;;11.93;8.73;;;24.10;99.90;;;;;;5032633;28;20650;-80
2022/08/17 12:53:27;;;;;;;16.55;9.25;;;24.10;99.90;;;;;;5030751;28;20712;-79
2022/08/17 12:55:53;;;;;;;10.93;8.20;;;23.90;99.90;;;;;;5032309;28;20189;-80
2022/08/17 12:58:23;;;;;;;11.05;7.45;;;23.80;99.90;;;;;;5030538;28;20698;-78
2022/08/17 13:01:14;;;;;;;11.95;7.72;;;23.90;99.90;;;;;;5048515;28;20612;-78
2022/08/17 13:03:44;;;;;;;13.35;7.68;;;24.10;99.90;;;;;;5050208;28;20227;-78
2022/08/17 13:06:24;;;;;;;12.25;7.47;;;23.90;99.90;;;;;;5050202;28;20201;-78
2022/08/17 13:08:49;;;;;;;9.27;7.25;;;23.90;99.90;;;;;;5050004;28;20203;-79
2022/08/17 13:11:17;;;;;;;11.18;7.95;;;24.10;99.90;;;;;;5049954;28;20181;-79
2022/08/17 13:13:47;;;;;;;11.07;6.50;;;24.30;99.90;;;;;;5047645;28;20201;-79
2022/08/17 13:16:16;;;;;;;8.60;6.50;;;24.30;99.90;;;;;;5048610;28;20752;-79
2022/08/17 13:18:47;;;;;;;6.47;5.35;;;24.30;99.90;;;;;;5043953;28;20658;-79
2022/08/17 13:21:17;;;;;;;10.20;5.03;;;24.40;99.90;;;;;;5032278;28;20696;-78
2022/08/17 13:24:01;;;;;;;5.85;4.72;;;24.40;99.90;;;;;;5031437;28;20174;-79
2022/08/17 13:26:40;;;;;;;10.18;5.15;;;24.40;99.90;;;;;;5031264;28;20186;-78
2022/08/17 13:29:17;;;;;;;10.27;4.75;;;24.60;99.90;;;;;;5031890;28;20204;-79
2022/08/17 13:31:42;;;;;;;5.68;4.10;;;24.40;99.90;;;;;;5040473;28;20184;-76
2022/08/17 13:34:14;;;;;;;6.07;4.88;;;24.40;99.90;;;;;;5049053;28;20728;-76